createdAt,value
2018-06-01T00:02:26.287Z,11.17
2018-06-01T00:04:53.768Z,8.73
2018-06-01T00:07:21.262Z,10.67
2018-06-01T00:09:48.785Z,8.57
2018-06-01T00:12:16.272Z,9.23
2018-06-01T00:14:43.771Z,9.07
2018-06-01T00:17:11.259Z,13.87
2018-06-01T00:19:39.505Z,10.40
2018-06-01T00:22:06.992Z,9.77
2018-06-01T00:24:35.280Z,11.70
2018-06-01T00:27:03.543Z,13.13
2018-06-01T00:29:31.819Z,12.07
2018-06-01T00:31:59.285Z,12.20
2018-06-01T00:34:27.571Z,8.83
2018-06-01T00:36:55.162Z,10.93
2018-06-01T00:39:22.609Z,10.17
2018-06-01T00:41:50.084Z,9.23
2018-06-01T00:44:17.586Z,13.47
2018-06-01T00:46:45.813Z,8.60
2018-06-01T00:49:13.298Z,11.30
2018-06-01T00:51:40.868Z,17.60
2018-06-01T00:54:08.369Z,9.50
2018-06-01T00:56:35.845Z,18.33
2018-06-01T00:59:03.328Z,13.50
2018-06-01T01:01:30.806Z,15.13
2018-06-01T01:03:59.054Z,13.23
2018-06-01T01:06:26.536Z,13.27
2018-06-01T01:08:54.762Z,12.80
2018-06-01T01:11:22.265Z,11.23
2018-06-01T01:13:50.499Z,10.07
2018-06-01T01:16:18.038Z,13.20
2018-06-01T01:18:45.556Z,10.63
2018-06-01T01:21:13.811Z,9.33
2018-06-01T01:23:41.394Z,10.97
2018-06-01T01:26:08.927Z,12.53
2018-06-01T01:28:36.497Z,11.13
2018-06-01T01:31:03.974Z,11.93
2018-06-01T01:33:32.227Z,11.60
2018-06-01T01:35:59.717Z,13.47
2018-06-01T01:38:27.184Z,13.60
2018-06-01T01:40:58.487Z,16.33
2018-06-01T01:43:26.043Z,16.43
2018-06-01T01:45:53.657Z,9.93
2018-06-01T01:48:21.153Z,12.17
2018-06-01T01:50:48.619Z,11.20
2018-06-01T01:53:16.090Z,15.97
2018-06-01T01:55:44.346Z,10.90
2018-06-01T01:58:11.858Z,17.67
2018-06-01T02:00:39.329Z,10.13
2018-06-01T02:03:06.817Z,14.53
2018-06-01T02:05:34.283Z,11.57
2018-06-01T02:08:01.771Z,26.30
2018-06-01T02:10:29.243Z,12.83
2018-06-01T02:12:56.803Z,10.03
2018-06-01T02:15:24.311Z,15.97
2018-06-01T02:17:51.791Z,13.70
2018-06-01T02:20:20.067Z,15.13
2018-06-01T02:22:48.295Z,11.93
2018-06-01T02:25:15.774Z,14.40
2018-06-01T02:27:43.334Z,14.73
2018-06-01T02:30:10.929Z,13.43
2018-06-01T02:32:38.386Z,13.27
2018-06-01T02:35:05.870Z,14.20
2018-06-01T02:37:33.336Z,13.63
2018-06-01T02:40:00.932Z,13.00
2018-06-01T02:42:29.161Z,11.93
2018-06-01T02:44:56.628Z,15.60
2018-06-01T02:47:24.142Z,14.00
2018-06-01T02:49:52.384Z,12.53
2018-06-01T02:52:19.847Z,9.43
2018-06-01T02:54:47.322Z,17.57
2018-06-01T02:57:15.583Z,12.83
2018-06-01T02:59:43.157Z,10.10
2018-06-01T03:02:11.401Z,12.57
2018-06-01T03:04:38.972Z,10.53
2018-06-01T03:07:13.549Z,11.83
2018-06-01T03:09:41.010Z,14.77
2018-06-01T03:12:08.488Z,10.77
2018-06-01T03:14:35.947Z,10.80
2018-06-01T03:17:03.511Z,12.07
2018-06-01T03:19:31.078Z,13.03
2018-06-01T03:21:58.593Z,8.80
2018-06-01T03:24:26.914Z,12.13
2018-06-01T03:26:54.379Z,9.40
2018-06-01T03:29:22.621Z,13.17
2018-06-01T03:31:50.156Z,12.47
2018-06-01T03:34:17.614Z,18.33
2018-06-01T03:36:45.152Z,11.53
2018-06-01T03:39:12.676Z,12.00
2018-06-01T03:41:40.155Z,13.83
2018-06-01T03:44:08.382Z,11.53
2018-06-01T03:46:35.954Z,14.20
2018-06-01T03:49:03.565Z,10.60
2018-06-01T03:51:31.090Z,14.07
2018-06-01T03:53:58.571Z,12.77
2018-06-01T03:56:26.061Z,11.93
2018-06-01T03:58:53.539Z,12.13
2018-06-01T04:01:21.019Z,41.47
2018-06-01T04:03:48.569Z,25.40
2018-06-01T04:06:16.120Z,27.00
2018-06-01T04:08:43.704Z,33.43
2018-06-01T04:11:11.942Z,45.33
2018-06-01T04:13:39.528Z,15.50
2018-06-01T04:16:07.092Z,20.77
2018-06-01T04:18:34.569Z,12.13
2018-06-01T04:21:02.802Z,20.30
2018-06-01T04:23:30.369Z,11.27
2018-06-01T04:25:57.844Z,17.33
2018-06-01T04:28:26.094Z,11.90
2018-06-01T04:30:55.071Z,18.27
2018-06-01T04:33:22.670Z,11.87
2018-06-01T04:35:50.236Z,12.33
2018-06-01T04:38:18.507Z,12.77
2018-06-01T04:40:46.763Z,16.03
2018-06-01T04:43:14.276Z,14.67
2018-06-01T04:45:41.795Z,36.00
2018-06-01T04:48:09.275Z,17.23
2018-06-01T04:50:36.792Z,12.57
2018-06-01T04:53:04.272Z,14.17
2018-06-01T04:55:32.495Z,14.67
2018-06-01T04:57:59.970Z,18.80
2018-06-01T05:00:27.454Z,17.00
2018-06-01T05:02:55.052Z,17.10
2018-06-01T05:05:22.551Z,17.63
2018-06-01T05:07:50.034Z,16.73
2018-06-01T05:10:18.286Z,13.37
2018-06-01T05:12:47.266Z,14.53
2018-06-01T05:15:14.727Z,13.30
2018-06-01T05:17:42.289Z,15.67
2018-06-01T05:20:09.750Z,16.23
2018-06-01T05:22:37.235Z,18.37
2018-06-01T05:25:05.467Z,70.33
2018-06-01T05:27:32.936Z,21.40
2018-06-01T05:30:00.424Z,19.50
2018-06-01T05:32:28.672Z,22.63
2018-06-01T05:34:56.160Z,15.77
2018-06-01T05:37:24.433Z,23.93
2018-06-01T05:39:52.664Z,13.50
2018-06-01T05:42:20.128Z,17.83
2018-06-01T05:44:47.595Z,12.97
2018-06-01T05:47:15.061Z,13.77
2018-06-01T05:49:43.340Z,20.00
2018-06-01T05:52:11.588Z,16.53
2018-06-01T05:54:39.084Z,15.90
2018-06-01T05:57:07.311Z,25.57
2018-06-01T05:59:34.783Z,18.50
2018-06-01T06:02:02.299Z,16.77
2018-06-01T06:04:29.783Z,15.43
2018-06-01T06:06:57.247Z,22.03
2018-06-01T06:09:24.715Z,15.50
2018-06-01T06:11:52.210Z,17.63
2018-06-01T06:14:19.688Z,20.83
2018-06-01T06:16:47.159Z,18.80
2018-06-01T06:19:14.638Z,18.00
2018-06-01T06:21:42.119Z,17.93
2018-06-01T06:24:10.383Z,19.00
2018-06-01T06:26:37.866Z,16.90
2018-06-01T06:29:05.348Z,16.20
2018-06-01T06:31:32.827Z,16.90
2018-06-01T06:34:00.306Z,18.07
2018-06-01T06:36:27.771Z,25.83
2018-06-01T06:38:55.317Z,20.17
2018-06-01T06:41:22.995Z,17.77
2018-06-01T06:43:50.531Z,17.20
2018-06-01T06:46:18.002Z,17.23
2018-06-01T06:48:46.284Z,18.77
2018-06-01T06:51:13.763Z,17.80
2018-06-01T06:53:41.295Z,24.33
2018-06-01T06:56:08.919Z,17.00
2018-06-01T06:58:36.531Z,18.90
2018-06-01T07:01:04.844Z,22.60
2018-06-01T07:03:32.422Z,22.93
2018-06-01T07:05:59.992Z,25.17
2018-06-01T07:08:27.459Z,16.80
2018-06-01T07:10:54.988Z,22.67
2018-06-01T07:13:22.567Z,17.93
2018-06-01T07:15:50.168Z,17.93
2018-06-01T07:18:18.630Z,19.60
2018-06-01T07:20:46.999Z,20.93
2018-06-01T07:23:14.560Z,31.13
2018-06-01T07:25:42.179Z,18.00
2018-06-01T07:28:09.748Z,18.03
2018-06-01T07:30:37.376Z,22.17
2018-06-01T07:33:04.940Z,24.47
2018-06-01T07:35:32.571Z,28.13
2018-06-01T07:38:01.407Z,16.23
2018-06-01T07:40:29.691Z,23.70
2018-06-01T07:42:57.170Z,19.40
2018-06-01T07:45:24.728Z,23.83
2018-06-01T07:47:52.569Z,19.60
2018-06-01T07:50:20.155Z,22.80
2018-06-01T07:52:47.709Z,22.33
2018-06-01T07:55:15.402Z,16.70
2018-06-01T07:57:43.646Z,19.10
2018-06-01T08:00:11.334Z,21.27
2018-06-01T08:02:39.579Z,15.97
2018-06-01T08:05:07.144Z,18.33
2018-06-01T08:07:34.731Z,15.37
2018-06-01T08:10:02.991Z,18.40
2018-06-01T08:12:30.595Z,16.57
2018-06-01T08:14:58.104Z,16.87
2018-06-01T08:17:25.700Z,18.57
2018-06-01T08:19:53.159Z,23.00
2018-06-01T08:22:20.679Z,18.97
2018-06-01T08:24:49.702Z,20.17
2018-06-01T08:27:17.948Z,16.20
2018-06-01T08:29:45.419Z,19.07
2018-06-01T08:32:13.707Z,19.10
2018-06-01T08:34:41.236Z,17.53
2018-06-01T08:37:08.797Z,19.57
2018-06-01T08:39:36.383Z,27.90
2018-06-01T08:42:04.719Z,19.23
2018-06-01T08:44:32.339Z,15.27
2018-06-01T08:46:59.815Z,17.03
2018-06-01T08:49:27.297Z,18.93
2018-06-01T08:51:54.779Z,14.83
2018-06-01T08:54:23.033Z,14.37
2018-06-01T08:56:51.283Z,18.97
2018-06-01T08:59:18.749Z,15.10
2018-06-01T09:01:46.224Z,18.83
2018-06-01T09:04:14.502Z,23.43
2018-06-01T09:06:42.113Z,17.30
2018-06-01T09:09:09.595Z,18.53
2018-06-01T09:11:37.083Z,21.23
2018-06-01T09:14:04.630Z,17.47
2018-06-01T09:16:32.873Z,8.80
2018-06-01T09:19:00.354Z,14.17
2018-06-01T09:21:27.816Z,9.43
2018-06-01T09:23:56.798Z,12.00
2018-06-01T09:26:24.273Z,13.37
2018-06-01T09:28:52.506Z,8.30
2018-06-01T09:31:19.975Z,5.33
2018-06-01T09:33:47.456Z,12.97
2018-06-01T09:36:14.911Z,13.83
2018-06-01T09:38:42.371Z,10.70
2018-06-01T09:41:09.831Z,8.20
2018-06-01T09:43:37.329Z,14.43
2018-06-01T09:46:04.798Z,11.23
2018-06-01T09:48:32.296Z,8.73
2018-06-01T09:50:59.861Z,11.10
2018-06-01T09:53:27.370Z,10.40
2018-06-01T09:55:54.869Z,9.83
2018-06-01T09:58:22.331Z,5.20
2018-06-01T10:00:56.238Z,14.30
2018-06-01T10:03:23.794Z,8.70
2018-06-01T10:05:51.252Z,12.93
2018-06-01T10:08:20.214Z,7.30
2018-06-01T10:10:47.711Z,7.43
2018-06-01T10:13:15.946Z,9.00
2018-06-01T10:15:43.438Z,10.90
2018-06-01T10:18:10.943Z,6.10
2018-06-01T10:20:38.598Z,9.43
2018-06-01T10:23:06.150Z,6.30
2018-06-01T10:25:33.685Z,6.80
2018-06-01T10:28:01.934Z,7.57
2018-06-01T10:30:30.935Z,8.57
2018-06-01T10:32:58.511Z,6.40
2018-06-01T10:35:26.071Z,9.20
2018-06-01T10:37:54.312Z,8.13
2018-06-01T10:40:21.790Z,8.77
2018-06-01T10:42:50.068Z,7.27
2018-06-01T10:45:17.558Z,10.33
2018-06-01T10:47:45.076Z,17.47
2018-06-01T10:50:14.047Z,11.33
2018-06-01T10:52:41.644Z,6.10
2018-06-01T10:55:09.899Z,9.43
2018-06-01T10:57:37.352Z,8.10
2018-06-01T11:00:04.822Z,9.27
2018-06-01T11:02:33.787Z,11.27
2018-06-01T11:05:01.276Z,9.30
2018-06-01T11:07:29.559Z,13.03
2018-06-01T11:09:57.833Z,9.97
2018-06-01T11:12:26.070Z,14.53
2018-06-01T11:14:53.559Z,11.93
2018-06-01T11:17:21.876Z,10.17
2018-06-01T11:19:49.402Z,12.63
2018-06-01T11:22:17.635Z,10.57
2018-06-01T11:24:45.091Z,8.93
2018-06-01T11:27:12.624Z,7.50
2018-06-01T11:29:40.111Z,7.27
2018-06-01T11:32:07.578Z,6.83
2018-06-01T11:34:35.036Z,7.10
2018-06-01T11:37:02.504Z,11.03
2018-06-01T11:39:30.059Z,8.40
2018-06-01T11:41:57.567Z,7.90
2018-06-01T11:44:25.091Z,6.50
2018-06-01T11:46:52.588Z,9.23
2018-06-01T11:49:20.121Z,6.77
2018-06-01T11:51:47.584Z,13.53
2018-06-01T11:54:15.071Z,8.40
2018-06-01T11:56:42.662Z,9.30
2018-06-01T11:59:10.130Z,7.00
2018-06-01T12:01:37.733Z,11.63
2018-06-01T12:04:05.930Z,7.03
2018-06-01T12:06:33.519Z,7.10
2018-06-01T12:09:00.984Z,6.30
2018-06-01T12:11:29.245Z,10.17
2018-06-01T12:13:56.712Z,7.43
2018-06-01T12:16:24.938Z,6.10
2018-06-01T12:18:52.445Z,9.30
2018-06-01T12:21:19.907Z,9.73
2018-06-01T12:23:48.163Z,8.00
2018-06-01T12:26:15.638Z,7.20
2018-06-01T12:28:43.955Z,8.83
2018-06-01T12:31:11.430Z,6.00
2018-06-01T12:33:38.927Z,6.00
2018-06-01T12:36:07.358Z,12.60
2018-06-01T12:38:34.835Z,9.70
2018-06-01T12:41:02.557Z,10.23
2018-06-01T12:43:30.043Z,7.33
2018-06-01T12:45:57.518Z,6.33
2018-06-01T12:48:25.010Z,10.23
2018-06-01T12:50:52.539Z,7.47
2018-06-01T12:53:20.098Z,10.07
2018-06-01T12:55:47.559Z,9.10
2018-06-01T12:58:15.027Z,6.13
2018-06-01T13:00:43.279Z,5.50
2018-06-01T13:03:10.747Z,9.10
2018-06-01T13:05:38.218Z,7.37
2018-06-01T13:08:06.546Z,6.40
2018-06-01T13:10:34.014Z,11.53
2018-06-01T13:13:01.588Z,10.37
2018-06-01T13:15:29.038Z,6.43
2018-06-01T13:17:56.534Z,9.20
2018-06-01T13:20:24.788Z,7.00
2018-06-01T13:22:52.258Z,8.30
2018-06-01T13:25:20.576Z,5.90
2018-06-01T13:27:48.096Z,8.70
2018-06-01T13:30:16.378Z,7.47
2018-06-01T13:32:44.650Z,6.60
2018-06-01T13:35:12.902Z,9.20
2018-06-01T13:37:40.525Z,7.50
2018-06-01T13:40:08.012Z,7.33
2018-06-01T13:42:36.979Z,6.63
2018-06-01T13:45:04.466Z,9.90
2018-06-01T13:47:32.018Z,18.10
2018-06-01T13:49:59.478Z,6.43
2018-06-01T13:52:26.959Z,13.73
2018-06-01T13:54:55.240Z,7.80
2018-06-01T13:57:22.703Z,11.03
2018-06-01T13:59:50.167Z,8.67
2018-06-01T14:02:17.682Z,11.03
2018-06-01T14:04:45.153Z,9.50
2018-06-01T14:07:13.422Z,9.93
2018-06-01T14:09:41.003Z,8.57
2018-06-01T14:12:08.471Z,5.90
2018-06-01T14:14:35.986Z,15.63
2018-06-01T14:17:03.447Z,12.10
2018-06-01T14:19:30.929Z,9.57
2018-06-01T14:21:59.171Z,14.03
2018-06-01T14:24:26.663Z,8.97
2018-06-01T14:26:54.916Z,7.20
2018-06-01T14:29:22.443Z,8.00
2018-06-01T14:31:49.911Z,8.30
2018-06-01T14:34:17.483Z,8.10
2018-06-01T14:36:45.030Z,9.13
2018-06-01T14:39:12.590Z,6.97
2018-06-01T14:41:40.151Z,8.03
2018-06-01T14:44:07.652Z,9.50
2018-06-01T14:46:35.112Z,7.47
2018-06-01T14:49:02.631Z,8.60
2018-06-01T14:51:30.200Z,8.60
2018-06-01T14:53:57.673Z,10.73
2018-06-01T14:56:25.923Z,9.77
2018-06-01T14:58:53.479Z,8.80
2018-06-01T15:01:21.046Z,10.00
2018-06-01T15:03:48.603Z,10.33
2018-06-01T15:06:16.851Z,10.20
2018-06-01T15:08:44.340Z,9.57
2018-06-01T15:11:12.187Z,14.13
2018-06-01T15:13:39.806Z,8.80
2018-06-01T15:16:07.275Z,10.20
2018-06-01T15:18:34.779Z,10.07
2018-06-01T15:21:02.263Z,9.07
2018-06-01T15:23:29.742Z,8.87
2018-06-01T15:25:57.199Z,7.20
2018-06-01T15:28:24.673Z,10.37
2018-06-01T15:30:52.155Z,10.93
2018-06-01T15:33:19.722Z,6.23
2018-06-01T15:35:47.217Z,9.37
2018-06-01T15:38:14.700Z,13.57
2018-06-01T15:40:42.225Z,9.10
2018-06-01T15:43:09.633Z,10.67
2018-06-01T15:45:37.878Z,10.53
2018-06-01T15:48:05.349Z,7.93
2018-06-01T15:50:32.810Z,15.17
2018-06-01T15:53:00.284Z,10.07
2018-06-01T15:55:27.777Z,10.50
2018-06-01T15:57:55.233Z,11.80
2018-06-01T16:00:22.798Z,10.00
2018-06-01T16:02:50.302Z,7.40
2018-06-01T16:05:18.549Z,11.93
2018-06-01T16:07:46.086Z,12.53
2018-06-01T16:10:13.649Z,7.17
2018-06-01T16:12:41.171Z,9.30
2018-06-01T16:15:08.636Z,9.00
2018-06-01T16:17:36.903Z,12.20
2018-06-01T16:20:04.493Z,8.80
2018-06-01T16:22:31.947Z,9.13
2018-06-01T16:24:59.540Z,8.80
2018-06-01T16:27:27.044Z,11.33
2018-06-01T16:29:55.297Z,24.90
2018-06-01T16:32:22.817Z,18.30
2018-06-01T16:34:50.280Z,13.63
2018-06-01T16:37:17.766Z,11.27
2018-06-01T16:39:45.223Z,16.13
2018-06-01T16:42:12.699Z,20.33
2018-06-01T16:44:40.204Z,11.27
2018-06-01T16:47:07.701Z,11.60
2018-06-01T16:49:36.679Z,10.07
2018-06-01T16:52:04.209Z,8.70
2018-06-01T16:54:31.716Z,9.60
2018-06-01T16:56:59.263Z,20.13
2018-06-01T16:59:26.735Z,13.10
2018-06-01T17:01:54.198Z,16.23
2018-06-01T17:04:22.447Z,12.73
2018-06-01T17:06:50.026Z,9.87
2018-06-01T17:09:18.256Z,15.50
2018-06-01T17:11:45.737Z,21.03
2018-06-01T17:14:13.241Z,21.10
2018-06-01T17:16:40.681Z,41.73
2018-06-01T17:19:08.909Z,23.53
2018-06-01T17:21:36.392Z,23.87
2018-06-01T17:24:03.874Z,31.43
2018-06-01T17:26:32.196Z,20.67
2018-06-01T17:28:59.680Z,18.60
2018-06-01T17:31:27.173Z,19.63
2018-06-01T17:33:54.649Z,19.83
2018-06-01T17:36:22.164Z,15.03
2018-06-01T17:38:50.443Z,13.73
2018-06-01T17:41:19.173Z,20.30
2018-06-01T17:43:47.877Z,15.60
2018-06-01T17:46:16.748Z,17.80
2018-06-01T17:48:45.761Z,16.30
2018-06-01T17:51:14.439Z,12.50
2018-06-01T17:53:42.291Z,16.40
2018-06-01T17:56:10.366Z,13.90
2018-06-01T17:58:38.226Z,12.20
2018-06-01T18:01:06.092Z,19.90
2018-06-01T18:03:33.856Z,12.70
2018-06-01T18:06:01.389Z,17.80
2018-06-01T18:08:29.640Z,18.77
2018-06-01T18:10:57.123Z,14.60
2018-06-01T18:13:25.382Z,12.33
2018-06-01T18:15:54.015Z,11.37
2018-06-01T18:18:21.530Z,14.53
2018-06-01T18:20:49.792Z,13.17
2018-06-01T18:23:17.276Z,12.13
2018-06-01T18:25:45.524Z,12.73
2018-06-01T18:28:13.086Z,13.10
2018-06-01T18:30:40.645Z,17.93
2018-06-01T18:33:08.123Z,11.73
2018-06-01T18:35:36.400Z,19.00
2018-06-01T18:38:03.877Z,12.47
2018-06-01T18:40:31.356Z,18.93
2018-06-01T18:42:58.822Z,13.07
2018-06-01T18:45:26.355Z,15.80
2018-06-01T18:47:53.837Z,12.57
2018-06-01T18:50:21.313Z,13.90
2018-06-01T18:52:51.491Z,22.60
2018-06-01T18:55:18.952Z,14.70
2018-06-01T18:57:46.449Z,14.87
2018-06-01T19:00:14.697Z,19.43
2018-06-01T19:02:42.189Z,14.20
2018-06-01T19:05:09.760Z,13.23
2018-06-01T19:07:37.993Z,13.00
2018-06-01T19:10:05.569Z,17.13
2018-06-01T19:12:33.046Z,15.10
2018-06-01T19:15:01.327Z,16.10
2018-06-01T19:17:29.663Z,21.60
2018-06-01T19:19:57.111Z,16.83
2018-06-01T19:22:24.600Z,17.93
2018-06-01T19:24:52.163Z,15.70
2018-06-01T19:27:19.644Z,14.67
2018-06-01T19:29:47.173Z,14.90
2018-06-01T19:32:14.889Z,16.00
2018-06-01T19:34:42.376Z,19.97
2018-06-01T19:37:09.850Z,21.23
2018-06-01T19:39:37.399Z,18.17
2018-06-01T19:42:04.870Z,19.80
2018-06-01T19:44:33.113Z,17.43
2018-06-01T19:47:00.700Z,20.33
2018-06-01T19:49:28.627Z,16.00
2018-06-01T19:51:56.141Z,14.13
2018-06-01T19:54:24.445Z,18.93
2018-06-01T19:56:51.903Z,17.63
2018-06-01T19:59:19.448Z,17.60
2018-06-01T20:01:46.928Z,16.50
2018-06-01T20:04:14.437Z,19.63
2018-06-01T20:06:42.706Z,20.40
2018-06-01T20:09:10.195Z,18.10
2018-06-01T20:11:37.698Z,18.53
2018-06-01T20:14:05.258Z,16.93
2018-06-01T20:16:32.757Z,19.10
2018-06-01T20:19:00.989Z,17.67
2018-06-01T20:21:28.571Z,17.00
2018-06-01T20:23:56.063Z,15.60
2018-06-01T20:26:23.799Z,18.07
2018-06-01T20:28:52.140Z,20.30
2018-06-01T20:31:19.710Z,18.97
2018-06-01T20:33:47.289Z,22.47
2018-06-01T20:36:15.530Z,24.77
2018-06-01T20:38:42.991Z,15.67
2018-06-01T20:41:10.463Z,15.97
2018-06-01T20:43:38.036Z,25.30
2018-06-01T20:46:05.599Z,16.13
2018-06-01T20:48:33.061Z,13.37
2018-06-01T20:51:01.294Z,19.03
2018-06-01T20:53:28.759Z,35.80
2018-06-01T20:55:56.242Z,15.10
2018-06-01T20:58:24.503Z,12.80
2018-06-01T21:00:52.071Z,18.13
2018-06-01T21:03:19.887Z,20.70
2018-06-01T21:05:47.500Z,17.63
2018-06-01T21:08:15.088Z,18.57
2018-06-01T21:10:42.573Z,25.10
2018-06-01T21:13:10.033Z,21.50
2018-06-01T21:15:37.571Z,21.67
2018-06-01T21:18:05.059Z,20.47
2018-06-01T21:20:32.818Z,20.47
2018-06-01T21:23:00.295Z,18.80
2018-06-01T21:25:27.850Z,19.67
2018-06-01T21:27:57.987Z,22.00
2018-06-01T21:30:26.478Z,24.77
2018-06-01T21:32:58.223Z,20.57
2018-06-01T21:35:26.879Z,21.57
2018-06-01T21:37:54.469Z,22.20
2018-06-01T21:40:22.036Z,23.90
2018-06-01T21:42:50.310Z,23.07
2018-06-01T21:45:18.541Z,27.23
2018-06-01T21:47:46.041Z,24.87
2018-06-01T21:50:14.287Z,24.00
2018-06-01T21:52:41.859Z,36.90
2018-06-01T21:55:09.318Z,24.07
2018-06-01T21:57:36.795Z,28.90
2018-06-01T22:00:05.029Z,37.67
2018-06-01T22:02:32.578Z,25.30
2018-06-01T22:05:00.043Z,23.57
2018-06-01T22:07:27.517Z,23.70
2018-06-01T22:09:55.055Z,24.00
2018-06-01T22:12:22.577Z,20.40
2018-06-01T22:14:50.040Z,20.47
2018-06-01T22:17:17.503Z,21.70
2018-06-01T22:19:44.986Z,22.83
2018-06-01T22:22:12.465Z,20.10
2018-06-01T22:24:39.917Z,23.10
2018-06-01T22:27:07.402Z,22.70
2018-06-01T22:29:35.627Z,26.67
2018-06-01T22:32:03.205Z,26.00
2018-06-01T22:34:30.668Z,21.53
2018-06-01T22:36:58.933Z,20.47
2018-06-01T22:39:26.400Z,21.53
2018-06-01T22:41:53.943Z,18.00
2018-06-01T22:44:21.413Z,22.50
2018-06-01T22:46:48.875Z,24.63
2018-06-01T22:49:17.152Z,19.90
2018-06-01T22:51:44.621Z,20.00
2018-06-01T22:54:12.869Z,21.57
2018-06-01T22:56:40.522Z,21.33
2018-06-01T22:59:08.091Z,19.83
2018-06-01T23:01:35.654Z,23.07
2018-06-01T23:04:03.114Z,22.83
2018-06-01T23:06:31.029Z,23.40
2018-06-01T23:08:58.501Z,26.07
2018-06-01T23:11:25.981Z,20.50
2018-06-01T23:13:53.447Z,25.40
2018-06-01T23:16:21.000Z,21.97
2018-06-01T23:18:48.567Z,22.33
2018-06-01T23:21:16.128Z,26.30
2018-06-01T23:23:43.685Z,22.93
2018-06-01T23:26:11.248Z,20.00
2018-06-01T23:28:38.800Z,25.63
2018-06-01T23:31:06.259Z,27.60
2018-06-01T23:33:33.723Z,24.00
2018-06-01T23:36:01.183Z,24.57
2018-06-01T23:38:29.455Z,25.47
2018-06-01T23:40:56.915Z,22.90
2018-06-01T23:43:24.459Z,27.70
2018-06-01T23:45:51.986Z,27.20
2018-06-01T23:48:19.487Z,25.50
2018-06-01T23:50:47.760Z,25.00
2018-06-01T23:53:15.219Z,24.43
2018-06-01T23:55:43.469Z,27.50
2018-06-01T23:58:10.931Z,27.73
